Terminal Aerodrome Forecast
Issued by NWS Shreveport, LA

Home | Current Version | Previous Version | Text Only | Print | Product List | Glossary On
Versions: 1 2 3 4 5 6 7 8 9 10 11 12 13 14 15 16 17
000
FTUS44 KSHV 262100 AAA
TAFGGG
TAF AMD
KGGG 262120Z 2621/2718 35009KT P6SM OVC015
     FM262300 35010KT P6SM BKN025 OVC060
     FM270200 01008KT P6SM SCT070 OVC100
     FM271000 04008KT P6SM SCT040 BKN070
     FM271200 04008KT P6SM OVC050
     FM271300 04009KT P6SM OVC025
     FM271500 05011G15KT P6SM OVC020=

USA.gov is the U.S. government's official web portal to all federal, state and local government web resources and services.